Time;durP1;ratioP1;P1;durP2;ratioP2;P2;SDS_P1;SDS_P2;PMS_P1;PMS_P2;Temp;Humidity;BMP_temperature;BMP_pressure;BME280_temperature;BME280_humidity;BME280_pressure;Samples;Min_cycle;Max_cycle;Signal;HPM_P1;HPM_P2
2023/05/19 00:01:07;;;;;;;10.43;5.13;;;12.40;99.90;;;;;;5035026;28;20212;-78
2023/05/19 00:03:36;;;;;;;6.07;4.33;;;12.40;99.90;;;;;;5033959;28;20262;-78
2023/05/19 00:06:03;;;;;;;7.27;4.90;;;12.40;99.90;;;;;;5035156;28;20213;-79
2023/05/19 00:08:32;;;;;;;8.53;4.50;;;12.40;99.90;;;;;;5034992;28;20235;-79
2023/05/19 00:10:58;;;;;;;4.90;4.50;;;12.40;99.90;;;;;;5035310;28;20243;-78
2023/05/19 00:13:24;;;;;;;4.50;4.10;;;12.40;99.90;;;;;;5034437;28;20216;-79
2023/05/19 00:15:51;;;;;;;6.00;4.93;;;12.40;99.90;;;;;;5037958;28;20183;-78
2023/05/19 00:18:17;;;;;;;7.87;4.57;;;12.30;99.90;;;;;;5045350;28;20176;-80
2023/05/19 00:20:43;;;;;;;5.73;4.73;;;12.40;99.90;;;;;;5036982;28;20591;-78
2023/05/19 00:23:10;;;;;;;6.03;4.80;;;12.30;99.90;;;;;;5035289;28;20257;-78
2023/05/19 00:25:35;;;;;;;6.33;4.10;;;12.30;99.90;;;;;;5033748;28;20181;-78
2023/05/19 00:28:01;;;;;;;8.03;4.47;;;12.30;99.90;;;;;;5033012;28;20179;-80
2023/05/19 00:30:28;;;;;;;6.83;4.70;;;12.30;99.90;;;;;;5034779;28;20171;-78
2023/05/19 00:32:54;;;;;;;6.07;4.50;;;12.30;99.90;;;;;;5034850;28;20257;-79
2023/05/19 00:35:20;;;;;;;5.60;4.43;;;12.30;99.90;;;;;;5035320;28;20172;-80
2023/05/19 00:37:47;;;;;;;7.50;5.23;;;12.30;99.90;;;;;;5034849;28;20259;-78
2023/05/19 00:40:13;;;;;;;5.47;4.97;;;12.40;99.90;;;;;;5033979;28;20175;-80
2023/05/19 00:42:40;;;;;;;6.30;4.87;;;12.30;99.90;;;;;;5034965;28;20184;-78
2023/05/19 00:45:06;;;;;;;5.30;4.90;;;12.40;99.90;;;;;;5034769;28;20179;-79
2023/05/19 00:47:32;;;;;;;6.43;4.87;;;12.30;99.90;;;;;;5033912;28;20203;-79
2023/05/19 00:49:58;;;;;;;4.90;4.40;;;12.30;99.90;;;;;;5034799;28;20212;-79
2023/05/19 00:52:26;;;;;;;8.53;4.57;;;12.30;99.90;;;;;;5034545;28;20188;-78
2023/05/19 00:54:54;;;;;;;11.47;5.47;;;12.30;99.90;;;;;;5036947;28;20184;-79
2023/05/19 00:57:20;;;;;;;7.33;4.50;;;12.30;99.90;;;;;;5037762;28;20187;-77
2023/05/19 00:59:48;;;;;;;5.33;4.87;;;12.20;99.90;;;;;;5034660;28;20182;-80
2023/05/19 01:02:14;;;;;;;6.87;4.53;;;12.20;99.90;;;;;;5035607;28;20204;-78
2023/05/19 01:04:42;;;;;;;6.87;4.70;;;12.20;99.90;;;;;;5042817;28;20261;-79
2023/05/19 01:07:09;;;;;;;7.60;4.90;;;12.20;99.90;;;;;;5038891;28;20182;-78
2023/05/19 01:09:36;;;;;;;6.93;4.53;;;12.20;99.90;;;;;;5036012;28;20230;-78
2023/05/19 01:12:02;;;;;;;7.37;4.63;;;12.20;99.90;;;;;;5035960;28;20186;-81
2023/05/19 01:14:28;;;;;;;6.83;4.87;;;12.20;99.90;;;;;;5036639;28;20229;-80
2023/05/19 01:17:04;;;;;;;4.93;4.17;;;12.20;99.90;;;;;;5034041;28;20166;-78
2023/05/19 01:19:49;;;;;;;7.17;5.00;;;12.10;99.90;;;;;;5032487;28;20649;-78
2023/05/19 01:22:42;;;;;;;8.73;4.80;;;12.20;99.90;;;;;;5032204;28;20266;-78
2023/05/19 01:25:23;;;;;;;8.07;5.43;;;12.20;99.90;;;;;;5033577;28;20252;-80
2023/05/19 01:28:25;;;;;;;5.50;4.77;;;12.20;99.90;;;;;;5033734;28;20244;-79
2023/05/19 01:30:57;;;;;;;5.63;4.63;;;12.20;99.90;;;;;;5033837;28;20564;-80
2023/05/19 01:33:23;;;;;;;6.90;4.60;;;12.20;99.90;;;;;;5045592;28;20170;-78
2023/05/19 01:35:50;;;;;;;7.73;5.07;;;12.20;99.90;;;;;;5034691;28;20175;-80
2023/05/19 01:38:19;;;;;;;7.47;4.60;;;12.10;99.90;;;;;;5033773;28;20183;-78
2023/05/19 01:40:46;;;;;;;9.90;5.17;;;12.10;99.90;;;;;;5033493;28;20246;-79
2023/05/19 01:43:17;;;;;;;6.67;5.10;;;12.10;99.90;;;;;;5033534;28;20201;-80
2023/05/19 01:45:43;;;;;;;7.00;4.63;;;12.10;99.90;;;;;;5033127;28;20231;-78
2023/05/19 01:48:10;;;;;;;10.17;5.27;;;12.20;99.90;;;;;;5032994;28;20533;-79
2023/05/19 01:50:36;;;;;;;5.30;4.40;;;12.10;99.90;;;;;;5033070;28;20179;-80
2023/05/19 01:53:02;;;;;;;4.87;4.40;;;12.10;99.90;;;;;;5033120;28;20184;-78
2023/05/19 01:55:28;;;;;;;5.90;5.27;;;12.20;99.90;;;;;;5032988;28;20659;-79
2023/05/19 01:58:15;;;;;;;4.97;4.47;;;12.10;99.90;;;;;;5033287;28;20242;-78
2023/05/19 02:00:59;;;;;;;5.47;4.73;;;12.10;99.90;;;;;;5032854;28;20207;-79
2023/05/19 02:03:30;;;;;;;8.07;5.20;;;12.10;99.90;;;;;;5033291;28;20165;-78
2023/05/19 02:06:21;;;;;;;9.93;4.83;;;12.00;99.90;;;;;;5032915;28;20181;-77
2023/05/19 02:09:00;;;;;;;5.73;4.50;;;12.10;99.90;;;;;;5032940;28;20232;-78
2023/05/19 02:11:35;;;;;;;5.30;4.77;;;12.00;99.90;;;;;;5033380;28;20172;-78
2023/05/19 02:14:07;;;;;;;5.73;5.10;;;12.00;99.90;;;;;;5033101;28;20153;-79
2023/05/19 02:16:34;;;;;;;8.07;5.07;;;12.00;99.90;;;;;;5033348;28;20198;-79
2023/05/19 02:19:00;;;;;;;6.70;4.60;;;12.00;99.90;;;;;;5032342;28;20186;-78
2023/05/19 02:21:25;;;;;;;5.80;5.23;;;12.00;99.90;;;;;;5033156;28;20203;-81
2023/05/19 02:23:51;;;;;;;6.03;5.00;;;12.00;99.90;;;;;;5033125;28;20253;-79
2023/05/19 02:26:17;;;;;;;6.23;5.20;;;12.00;99.90;;;;;;5033994;28;20244;-80
2023/05/19 02:28:43;;;;;;;5.83;5.27;;;12.00;99.90;;;;;;5035130;28;20182;-77
2023/05/19 02:31:09;;;;;;;5.23;4.73;;;11.90;99.90;;;;;;5040077;28;20246;-78
2023/05/19 02:33:35;;;;;;;5.70;4.77;;;11.80;99.90;;;;;;5035321;28;20178;-79
2023/05/19 02:36:01;;;;;;;6.23;5.63;;;11.80;99.90;;;;;;5039508;28;20262;-80
2023/05/19 02:38:26;;;;;;;5.43;4.90;;;11.90;99.90;;;;;;5037698;28;20597;-78
2023/05/19 02:40:52;;;;;;;7.27;5.07;;;11.90;99.90;;;;;;5030920;28;20223;-78
2023/05/19 02:43:18;;;;;;;8.10;5.73;;;12.00;99.90;;;;;;5033040;28;20174;-78
2023/05/19 02:45:44;;;;;;;5.63;5.10;;;12.00;99.90;;;;;;5034362;28;20255;-78
2023/05/19 02:48:10;;;;;;;8.30;5.13;;;11.90;99.90;;;;;;5034141;28;20208;-78
2023/05/19 02:50:36;;;;;;;5.60;5.03;;;12.00;99.90;;;;;;5032778;28;20179;-78
2023/05/19 02:53:03;;;;;;;6.13;5.17;;;12.00;99.90;;;;;;5034611;28;20323;-79
2023/05/19 02:55:28;;;;;;;7.77;5.30;;;12.00;99.90;;;;;;5034320;28;20177;-79
2023/05/19 02:57:55;;;;;;;7.43;5.60;;;12.00;99.90;;;;;;5037286;28;20274;-78
2023/05/19 03:00:21;;;;;;;5.43;4.93;;;12.00;99.90;;;;;;5033481;28;20174;-78
2023/05/19 03:02:47;;;;;;;6.43;5.20;;;12.00;99.90;;;;;;5033008;28;20169;-79
2023/05/19 03:05:13;;;;;;;5.67;5.17;;;12.00;99.90;;;;;;5033053;28;20184;-80
2023/05/19 03:07:39;;;;;;;8.37;5.07;;;12.00;99.90;;;;;;5032997;28;20187;-80
2023/05/19 03:10:08;;;;;;;5.87;5.10;;;11.80;99.90;;;;;;5032094;28;20261;-79
2023/05/19 03:12:33;;;;;;;6.10;5.10;;;12.00;99.90;;;;;;5032707;28;20208;-79
2023/05/19 03:15:00;;;;;;;6.60;5.10;;;11.90;99.90;;;;;;5032625;28;20268;-79
2023/05/19 03:17:32;;;;;;;6.53;5.50;;;12.00;99.90;;;;;;5031792;28;20669;-79
2023/05/19 03:19:58;;;;;;;5.97;5.37;;;11.90;99.90;;;;;;5032854;28;20246;-79
2023/05/19 03:22:24;;;;;;;5.37;4.87;;;11.90;99.90;;;;;;5031265;28;20595;-79
2023/05/19 03:24:52;;;;;;;6.70;5.40;;;11.90;99.90;;;;;;5032707;28;20172;-79
2023/05/19 03:27:17;;;;;;;9.27;5.63;;;11.90;99.90;;;;;;5032622;28;20181;-78
2023/05/19 03:29:43;;;;;;;8.37;5.20;;;11.90;99.90;;;;;;5033964;28;20171;-78
2023/05/19 03:32:09;;;;;;;7.13;5.33;;;11.90;99.90;;;;;;5043042;28;20224;-79
2023/05/19 03:34:36;;;;;;;6.83;5.27;;;11.90;99.90;;;;;;5035699;28;20272;-79
2023/05/19 03:37:01;;;;;;;6.17;4.90;;;11.90;99.90;;;;;;5036474;28;20178;-78
2023/05/19 03:39:27;;;;;;;6.37;5.37;;;11.90;99.90;;;;;;5036226;28;20242;-79
2023/05/19 03:41:53;;;;;;;6.67;5.30;;;12.00;99.90;;;;;;5036214;28;20258;-78
2023/05/19 03:44:18;;;;;;;5.67;5.03;;;11.90;99.90;;;;;;5036455;28;20168;-79
2023/05/19 03:46:46;;;;;;;6.53;5.60;;;12.00;99.90;;;;;;5036530;28;20179;-79
2023/05/19 03:49:12;;;;;;;9.30;6.10;;;12.00;99.90;;;;;;5036946;28;20655;-80
2023/05/19 03:51:39;;;;;;;5.37;4.90;;;12.00;99.90;;;;;;5038588;28;20184;-79
2023/05/19 03:54:05;;;;;;;7.17;5.30;;;12.00;99.90;;;;;;5045601;28;20178;-78
2023/05/19 03:56:31;;;;;;;8.83;5.50;;;12.00;99.90;;;;;;5043483;28;20199;-78
2023/05/19 03:58:58;;;;;;;5.73;5.13;;;12.00;99.90;;;;;;5035671;28;20183;-79
2023/05/19 04:01:23;;;;;;;6.83;5.30;;;12.00;99.90;;;;;;5035222;28;20211;-77
2023/05/19 04:03:49;;;;;;;7.40;5.27;;;12.00;99.90;;;;;;5033633;28;20641;-79
2023/05/19 04:06:16;;;;;;;6.80;5.37;;;12.00;99.90;;;;;;5035235;28;20690;-78
2023/05/19 04:08:43;;;;;;;6.60;5.30;;;11.90;99.90;;;;;;5034747;28;20298;-78
2023/05/19 04:11:09;;;;;;;5.87;4.87;;;12.00;99.90;;;;;;5033785;28;20198;-78
2023/05/19 04:13:34;;;;;;;6.03;5.20;;;12.00;99.90;;;;;;5036174;28;20201;-78
2023/05/19 04:16:00;;;;;;;6.17;5.33;;;12.00;99.90;;;;;;5043157;28;20184;-79
2023/05/19 04:18:26;;;;;;;7.67;4.90;;;12.00;99.90;;;;;;5045276;28;20168;-78
2023/05/19 04:20:52;;;;;;;5.53;4.83;;;12.00;99.90;;;;;;5035611;28;20253;-78
2023/05/19 04:23:17;;;;;;;7.57;5.20;;;12.00;99.90;;;;;;5037094;28;20284;-78
2023/05/19 04:25:43;;;;;;;7.53;5.67;;;12.00;99.90;;;;;;5033741;28;20177;-77
2023/05/19 04:28:09;;;;;;;10.13;5.70;;;12.10;99.90;;;;;;5034947;28;20580;-80
2023/05/19 04:30:35;;;;;;;7.47;5.73;;;12.10;99.90;;;;;;5034503;28;20226;-79
2023/05/19 04:33:02;;;;;;;5.33;4.93;;;12.10;99.90;;;;;;5034809;28;20185;-78
2023/05/19 04:35:28;;;;;;;7.10;5.90;;;12.10;99.90;;;;;;5035679;28;20257;-78
2023/05/19 04:37:54;;;;;;;5.90;5.33;;;12.10;99.90;;;;;;5034922;28;20255;-79
2023/05/19 04:40:22;;;;;;;7.77;5.97;;;12.20;99.90;;;;;;5035380;28;20180;-78
2023/05/19 04:42:51;;;;;;;5.90;5.33;;;12.20;99.90;;;;;;5034256;28;20212;-80
2023/05/19 04:45:18;;;;;;;6.87;5.57;;;12.20;99.90;;;;;;5034805;28;20267;-79
2023/05/19 04:47:46;;;;;;;6.47;5.63;;;12.20;99.90;;;;;;5034086;28;20235;-79
2023/05/19 04:50:13;;;;;;;7.03;5.73;;;12.20;99.90;;;;;;5036057;28;20174;-78
2023/05/19 04:52:40;;;;;;;6.60;5.97;;;12.20;99.90;;;;;;5034781;28;20241;-79
2023/05/19 04:55:06;;;;;;;6.90;5.20;;;12.20;99.90;;;;;;5034479;28;20175;-79
2023/05/19 04:57:33;;;;;;;6.47;5.53;;;12.10;99.90;;;;;;5034637;28;20636;-80
2023/05/19 04:59:59;;;;;;;8.77;5.57;;;12.20;99.90;;;;;;5035146;28;20192;-79
2023/05/19 05:02:28;;;;;;;6.53;5.67;;;12.20;99.90;;;;;;5034422;28;20208;-80
2023/05/19 05:04:55;;;;;;;6.10;5.50;;;12.30;99.90;;;;;;5034645;28;20182;-79
2023/05/19 05:07:21;;;;;;;9.17;5.70;;;12.20;99.90;;;;;;5034042;28;20205;-80
2023/05/19 05:09:47;;;;;;;5.73;5.20;;;12.20;99.90;;;;;;5037104;28;20550;-80
2023/05/19 05:12:14;;;;;;;7.03;5.43;;;12.20;99.90;;;;;;5034702;28;20186;-79
2023/05/19 05:14:40;;;;;;;6.60;5.77;;;12.20;99.90;;;;;;5034553;28;20197;-79
2023/05/19 05:17:07;;;;;;;6.90;6.10;;;12.20;99.90;;;;;;5035005;28;20225;-78
2023/05/19 05:19:33;;;;;;;6.47;5.30;;;12.30;99.90;;;;;;5042170;28;20191;-79
2023/05/19 05:21:59;;;;;;;7.33;5.47;;;12.30;99.90;;;;;;5045503;28;20291;-80
2023/05/19 05:24:25;;;;;;;7.83;5.87;;;12.20;99.90;;;;;;5037413;28;20171;-79
2023/05/19 05:26:51;;;;;;;6.07;5.57;;;12.30;99.90;;;;;;5033924;28;20540;-78
2023/05/19 05:29:17;;;;;;;7.80;5.47;;;12.40;99.90;;;;;;5037547;28;20629;-79
2023/05/19 05:31:43;;;;;;;9.63;5.97;;;12.40;99.90;;;;;;5036674;28;20183;-79
2023/05/19 05:34:09;;;;;;;7.27;6.33;;;12.40;99.90;;;;;;5033590;28;20188;-78
2023/05/19 05:36:35;;;;;;;7.47;5.73;;;12.40;99.90;;;;;;5032553;28;20541;-79
2023/05/19 05:39:01;;;;;;;6.93;5.97;;;12.30;99.90;;;;;;5033848;28;20647;-79
2023/05/19 05:41:33;;;;;;;9.30;5.27;;;12.30;99.90;;;;;;5035277;28;20251;-79
2023/05/19 05:44:03;;;;;;;7.13;5.40;;;12.40;99.90;;;;;;5036975;28;20183;-77
2023/05/19 05:46:29;;;;;;;7.93;5.70;;;14.30;99.90;;;;;;5033691;28;20636;-78
2023/05/19 05:48:55;;;;;;;8.33;5.50;;;12.30;99.90;;;;;;5033123;28;20184;-76
2023/05/19 05:51:21;;;;;;;5.30;4.87;;;12.30;99.90;;;;;;5033239;28;20187;-77
2023/05/19 05:53:53;;;;;;;9.03;5.60;;;12.40;99.90;;;;;;5034095;28;20683;-80
2023/05/19 05:56:20;;;;;;;7.80;5.67;;;12.40;99.90;;;;;;5034190;28;20242;-78
2023/05/19 05:58:46;;;;;;;9.13;5.47;;;12.40;99.90;;;;;;5032893;28;20183;-78
2023/05/19 06:01:15;;;;;;;9.17;5.70;;;12.40;99.90;;;;;;5033173;28;20265;-79
2023/05/19 06:03:43;;;;;;;6.00;5.40;;;12.40;99.90;;;;;;5033059;28;20187;-79
2023/05/19 06:06:10;;;;;;;7.00;5.47;;;12.50;99.90;;;;;;5040075;28;20178;-79
2023/05/19 06:08:36;;;;;;;7.07;5.20;;;12.50;99.90;;;;;;5036456;28;20698;-80
2023/05/19 06:11:07;;;;;;;8.43;5.27;;;12.60;99.90;;;;;;5031442;28;20184;-78
2023/05/19 06:13:34;;;;;;;14.90;7.97;;;12.50;99.90;;;;;;5033398;28;20180;-79
2023/05/19 06:16:01;;;;;;;6.53;5.70;;;12.50;99.90;;;;;;5032893;28;20247;-78
2023/05/19 06:18:27;;;;;;;7.50;5.57;;;12.60;99.90;;;;;;5035158;28;20191;-78
2023/05/19 06:20:53;;;;;;;8.83;5.50;;;12.70;99.90;;;;;;5033011;28;20362;-78
2023/05/19 06:23:19;;;;;;;6.33;5.30;;;12.70;99.90;;;;;;5032844;28;20252;-79
2023/05/19 06:25:44;;;;;;;8.90;5.60;;;12.80;99.90;;;;;;5033159;28;20176;-79
2023/05/19 06:28:10;;;;;;;8.57;5.07;;;12.80;99.90;;;;;;5032644;28;20173;-80
2023/05/19 06:30:36;;;;;;;7.37;5.17;;;12.80;99.90;;;;;;5035272;28;20186;-78
2023/05/19 06:33:02;;;;;;;6.37;5.60;;;12.90;99.90;;;;;;5032749;28;20183;-79
2023/05/19 06:35:29;;;;;;;6.77;5.37;;;12.90;99.90;;;;;;5032188;28;20172;-78
2023/05/19 06:37:55;;;;;;;6.10;5.20;;;13.00;99.90;;;;;;5032958;28;20168;-80
2023/05/19 06:40:22;;;;;;;6.93;5.50;;;12.80;99.90;;;;;;5033294;28;20182;-78
2023/05/19 06:42:48;;;;;;;6.77;5.13;;;12.80;99.90;;;;;;5044010;28;20208;-78
2023/05/19 06:45:13;;;;;;;8.33;4.73;;;12.90;99.90;;;;;;5043893;28;20180;-80
2023/05/19 06:47:41;;;;;;;10.80;5.40;;;13.10;99.90;;;;;;5037039;28;20259;-79
2023/05/19 06:50:08;;;;;;;6.23;5.47;;;13.20;99.90;;;;;;5031568;28;20584;-78
2023/05/19 06:52:34;;;;;;;6.87;5.13;;;13.40;99.90;;;;;;5032430;28;20209;-78
2023/05/19 06:55:00;;;;;;;5.20;4.70;;;13.50;99.90;;;;;;5030724;28;20724;-79
2023/05/19 06:57:26;;;;;;;8.67;5.37;;;13.60;99.90;;;;;;5032378;28;20256;-78
2023/05/19 06:59:52;;;;;;;5.53;5.00;;;13.50;99.90;;;;;;5031124;28;20264;-78
2023/05/19 07:02:18;;;;;;;6.83;5.53;;;13.50;99.90;;;;;;5030994;28;20303;-79
2023/05/19 07:04:43;;;;;;;6.13;5.60;;;13.50;99.90;;;;;;5033698;28;20180;-79
2023/05/19 07:07:09;;;;;;;8.03;5.77;;;13.50;99.90;;;;;;5036306;28;20176;-78
2023/05/19 07:09:35;;;;;;;7.30;5.67;;;13.60;99.90;;;;;;5036291;28;20300;-79
2023/05/19 07:12:00;;;;;;;5.77;5.10;;;13.60;99.90;;;;;;5036299;28;20707;-80
2023/05/19 07:14:26;;;;;;;11.00;5.53;;;13.80;99.90;;;;;;5036141;28;20199;-79
2023/05/19 07:16:52;;;;;;;6.33;5.60;;;13.70;99.90;;;;;;5036600;28;20183;-79
2023/05/19 07:19:22;;;;;;;9.20;5.77;;;13.90;99.90;;;;;;5037035;28;20215;-80
2023/05/19 07:21:48;;;;;;;6.50;5.80;;;14.00;99.90;;;;;;5036222;28;20295;-79
2023/05/19 07:24:14;;;;;;;8.80;5.60;;;14.10;99.90;;;;;;5035952;28;20255;-79
2023/05/19 07:26:41;;;;;;;6.97;5.03;;;14.30;99.90;;;;;;5036009;28;20204;-78
2023/05/19 07:29:07;;;;;;;6.17;5.57;;;14.40;99.90;;;;;;5040481;28;20173;-80
2023/05/19 07:31:33;;;;;;;8.43;5.87;;;14.60;99.90;;;;;;5036716;28;20243;-79
2023/05/19 07:33:59;;;;;;;7.30;5.27;;;14.70;99.90;;;;;;5036288;28;20176;-79
2023/05/19 07:36:24;;;;;;;7.20;5.30;;;14.80;99.90;;;;;;5036041;28;20181;-78
2023/05/19 07:38:50;;;;;;;8.77;6.23;;;14.90;99.90;;;;;;5035607;28;20526;-78
2023/05/19 07:41:16;;;;;;;8.50;6.27;;;14.70;99.90;;;;;;5035621;28;20242;-78
2023/05/19 07:43:42;;;;;;;7.27;5.57;;;14.30;99.90;;;;;;5035664;28;20173;-78
2023/05/19 07:46:07;;;;;;;9.40;6.50;;;14.10;99.90;;;;;;5034534;28;20211;-79
2023/05/19 07:48:33;;;;;;;8.73;6.00;;;14.00;99.90;;;;;;5036002;28;20354;-78
2023/05/19 07:50:59;;;;;;;7.27;5.87;;;13.90;99.90;;;;;;5038123;28;20179;-79
2023/05/19 07:53:25;;;;;;;6.87;6.27;;;14.00;99.90;;;;;;5035728;28;20667;-78
2023/05/19 07:55:51;;;;;;;11.30;6.53;;;14.10;99.90;;;;;;5035464;28;20676;-78
2023/05/19 07:58:16;;;;;;;14.97;10.93;;;14.20;99.90;;;;;;5035563;28;20237;-79
2023/05/19 08:00:42;;;;;;;10.03;6.93;;;14.30;99.90;;;;;;5035842;28;20186;-79
2023/05/19 08:03:09;;;;;;;7.90;6.50;;;14.40;99.90;;;;;;5046990;28;20172;-78
2023/05/19 08:05:35;;;;;;;8.70;6.60;;;14.40;99.90;;;;;;5040090;28;20235;-78
2023/05/19 08:08:02;;;;;;;8.07;6.13;;;14.50;99.90;;;;;;5045966;28;20172;-79
2023/05/19 08:10:27;;;;;;;8.53;6.27;;;14.50;99.90;;;;;;5047787;28;20212;-80
2023/05/19 08:12:53;;;;;;;8.97;6.47;;;14.50;99.90;;;;;;5044518;28;20181;-78
2023/05/19 08:15:19;;;;;;;11.47;6.80;;;14.60;99.90;;;;;;5035558;28;20535;-78
2023/05/19 08:17:45;;;;;;;8.60;6.60;;;14.50;99.90;;;;;;5033981;28;20535;-80
2023/05/19 08:20:11;;;;;;;8.00;6.40;;;14.60;99.90;;;;;;5034827;28;20180;-79
2023/05/19 08:22:37;;;;;;;7.43;6.40;;;14.90;99.90;;;;;;5034937;28;20212;-80
2023/05/19 08:25:04;;;;;;;7.67;6.00;;;15.00;99.90;;;;;;5034910;28;20173;-78
2023/05/19 08:27:30;;;;;;;7.07;5.53;;;15.10;99.90;;;;;;5035025;28;20268;-79
2023/05/19 08:29:56;;;;;;;7.17;6.27;;;15.20;99.90;;;;;;5034756;28;20204;-81
2023/05/19 08:32:22;;;;;;;14.63;6.33;;;15.10;99.90;;;;;;5034739;28;20268;-78
2023/05/19 08:34:48;;;;;;;9.43;6.27;;;15.00;99.90;;;;;;5034639;28;20697;-79
2023/05/19 08:37:14;;;;;;;7.97;6.33;;;15.10;99.90;;;;;;5034744;28;20177;-81
2023/05/19 08:39:39;;;;;;;7.40;5.77;;;15.10;99.90;;;;;;5034758;28;20182;-79
2023/05/19 08:42:08;;;;;;;6.90;5.83;;;15.40;99.90;;;;;;5034689;28;20673;-79
2023/05/19 08:44:38;;;;;;;8.47;6.50;;;15.60;99.90;;;;;;5034796;28;20182;-79
2023/05/19 08:47:06;;;;;;;9.67;6.90;;;15.90;99.90;;;;;;5035777;28;20165;-80
2023/05/19 08:49:41;;;;;;;6.30;5.70;;;15.80;99.90;;;;;;5035276;28;20232;-80
2023/05/19 08:52:07;;;;;;;6.93;6.20;;;15.90;99.90;;;;;;5036967;28;20157;-80
2023/05/19 08:54:44;;;;;;;6.73;6.03;;;15.80;99.90;;;;;;5034495;28;20246;-79
2023/05/19 08:57:12;;;;;;;7.20;5.50;;;16.30;99.90;;;;;;5034269;28;20153;-80
2023/05/19 08:59:39;;;;;;;9.47;6.33;;;16.10;99.90;;;;;;5034327;28;20238;-80
2023/05/19 09:02:07;;;;;;;9.57;5.40;;;16.30;99.90;;;;;;5036475;28;20196;-81
2023/05/19 09:04:33;;;;;;;8.30;6.33;;;16.50;99.90;;;;;;5039288;28;20652;-79
2023/05/19 09:07:02;;;;;;;7.00;6.30;;;16.70;99.90;;;;;;5034827;28;20656;-79
2023/05/19 09:09:29;;;;;;;7.30;5.17;;;16.70;99.90;;;;;;5032445;28;20235;-80
2023/05/19 09:11:55;;;;;;;8.07;5.90;;;16.70;99.90;;;;;;5034767;28;20180;-79
2023/05/19 09:14:21;;;;;;;6.97;5.83;;;16.50;99.90;;;;;;5045216;28;20182;-77
2023/05/19 09:16:49;;;;;;;6.70;5.70;;;16.50;99.90;;;;;;5054146;28;20228;-79
2023/05/19 09:19:15;;;;;;;7.57;6.13;;;16.50;99.90;;;;;;5054711;28;20187;-79
2023/05/19 09:21:42;;;;;;;7.10;6.30;;;16.30;99.90;;;;;;5055573;28;20239;-79
2023/05/19 09:24:08;;;;;;;6.77;5.93;;;16.40;99.90;;;;;;5047781;28;20184;-79
2023/05/19 09:26:41;;;;;;;7.93;6.40;;;16.40;99.90;;;;;;5034452;28;20213;-80
2023/05/19 09:29:15;;;;;;;6.87;5.60;;;16.30;99.90;;;;;;5033838;28;20275;-79
2023/05/19 09:32:00;;;;;;;6.93;5.70;;;16.50;99.90;;;;;;5037735;28;20190;-78
2023/05/19 09:34:26;;;;;;;6.63;5.73;;;16.70;99.90;;;;;;5056568;28;20171;-78
2023/05/19 09:36:52;;;;;;;5.97;5.23;;;16.40;99.90;;;;;;5072381;28;20195;-89
2023/05/19 09:39:22;;;;;;;6.37;5.77;;;16.40;99.90;;;;;;5058888;28;20222;-88
2023/05/19 09:41:53;;;;;;;7.03;5.77;;;16.50;99.90;;;;;;5041266;28;20219;-87
2023/05/19 09:44:22;;;;;;;6.53;5.87;;;16.60;99.90;;;;;;5033444;28;20195;-86
2023/05/19 09:46:49;;;;;;;7.73;5.40;;;16.70;99.90;;;;;;5033987;28;20223;-85
2023/05/19 09:49:23;;;;;;;7.03;5.53;;;17.10;99.90;;;;;;5044918;28;20267;-87
2023/05/19 09:51:53;;;;;;;5.87;5.37;;;17.30;99.90;;;;;;5054280;28;20361;-89
2023/05/19 09:54:20;;;;;;;6.63;5.97;;;17.60;99.90;;;;;;5053900;28;20282;-84
2023/05/19 09:56:51;;;;;;;6.10;5.50;;;17.40;99.90;;;;;;5053920;28;20175;-87
2023/05/19 09:59:19;;;;;;;6.57;5.90;;;17.20;99.90;;;;;;5052519;28;20209;-81
2023/05/19 10:01:45;;;;;;;8.03;5.63;;;17.00;99.90;;;;;;5052454;28;20273;-83
2023/05/19 10:04:13;;;;;;;8.10;5.23;;;17.40;99.90;;;;;;5053456;28;20183;-85
2023/05/19 10:06:40;;;;;;;6.43;5.63;;;17.70;99.90;;;;;;5053796;28;20182;-79
2023/05/19 10:09:06;;;;;;;5.60;5.10;;;17.80;99.90;;;;;;5052104;28;20270;-78
2023/05/19 10:11:33;;;;;;;6.83;5.20;;;17.90;99.90;;;;;;5052052;28;20164;-79
2023/05/19 10:13:59;;;;;;;9.07;5.03;;;18.20;99.90;;;;;;5043489;28;20207;-79
2023/05/19 10:16:27;;;;;;;5.50;4.90;;;18.20;99.90;;;;;;5032865;28;20191;-80
2023/05/19 10:18:56;;;;;;;6.67;5.63;;;18.30;99.90;;;;;;5032542;28;20186;-80
2023/05/19 10:21:21;;;;;;;7.83;5.27;;;18.50;99.90;;;;;;5032533;28;20279;-80
2023/05/19 10:23:47;;;;;;;5.30;4.77;;;18.50;99.90;;;;;;5033366;28;20254;-79
2023/05/19 10:26:13;;;;;;;7.57;5.30;;;18.60;99.90;;;;;;5034022;28;20176;-80
2023/05/19 10:28:43;;;;;;;6.83;5.20;;;18.40;99.90;;;;;;5033070;28;20188;-80
2023/05/19 10:31:12;;;;;;;6.67;4.93;;;18.60;99.90;;;;;;5034185;28;20187;-78
2023/05/19 10:34:05;;;;;;;5.10;4.20;;;18.80;99.90;;;;;;5032140;28;20187;-79
2023/05/19 10:36:43;;;;;;;4.53;4.23;;;18.40;99.90;;;;;;5037617;28;20168;-78
2023/05/19 10:39:28;;;;;;;4.80;4.23;;;17.40;99.90;;;;;;5038903;28;20161;-79
2023/05/19 10:42:00;;;;;;;6.37;4.20;;;17.50;99.90;;;;;;5032794;28;20299;-79
2023/05/19 10:44:38;;;;;;;4.30;4.00;;;17.40;99.90;;;;;;5031446;28;20267;-79
2023/05/19 10:47:07;;;;;;;4.40;4.00;;;17.30;99.90;;;;;;5032473;28;20184;-79
2023/05/19 10:49:36;;;;;;;3.93;3.57;;;17.40;99.90;;;;;;5032845;28;20275;-79
2023/05/19 10:52:02;;;;;;;4.27;3.73;;;17.40;99.90;;;;;;5036289;28;20248;-78
2023/05/19 10:54:42;;;;;;;4.20;3.77;;;17.70;99.90;;;;;;5033890;28;20176;-81
2023/05/19 10:57:12;;;;;;;4.50;3.90;;;18.00;99.90;;;;;;4995481;28;20181;-79
2023/05/19 10:59:38;;;;;;;3.80;3.60;;;18.10;99.90;;;;;;5016869;28;20157;-80
2023/05/19 11:02:06;;;;;;;3.43;2.83;;;18.30;99.90;;;;;;5024452;28;20266;-79
2023/05/19 11:04:55;;;;;;;3.47;3.27;;;18.40;99.90;;;;;;5016662;28;20247;-78
2023/05/19 11:07:21;;;;;;;3.57;3.10;;;18.70;99.90;;;;;;5016518;28;20168;-79
2023/05/19 11:09:51;;;;;;;3.30;3.00;;;18.70;99.90;;;;;;5012656;28;20692;-80
2023/05/19 11:12:23;;;;;;;3.50;3.30;;;18.90;99.90;;;;;;5012865;28;20173;-78
2023/05/19 11:14:53;;;;;;;4.63;3.00;;;19.00;99.90;;;;;;5012404;28;20178;-79
2023/05/19 11:17:22;;;;;;;4.03;3.10;;;18.80;99.90;;;;;;5012515;28;20173;-79
2023/05/19 11:19:56;;;;;;;5.37;3.57;;;18.80;99.90;;;;;;5015325;28;20177;-78
2023/05/19 11:22:28;;;;;;;3.57;3.27;;;18.80;99.90;;;;;;5018557;28;20542;-79
2023/05/19 11:24:54;;;;;;;3.93;3.17;;;18.70;99.90;;;;;;5013213;28;20169;-77
2023/05/19 11:27:32;;;;;;;2.83;2.73;;;18.40;99.90;;;;;;5012611;28;20273;-79
2023/05/19 11:30:10;;;;;;;2.53;2.43;;;18.40;99.90;;;;;;5012396;28;20165;-79
2023/05/19 11:32:38;;;;;;;2.90;2.70;;;18.50;99.90;;;;;;5012347;28;20204;-80
2023/05/19 11:35:04;;;;;;;3.00;2.80;;;18.40;99.90;;;;;;5012092;28;20178;-79
2023/05/19 11:37:33;;;;;;;2.70;2.60;;;18.60;99.90;;;;;;5012574;28;20184;-80
2023/05/19 11:40:01;;;;;;;2.90;2.70;;;18.70;99.90;;;;;;5012220;28;20162;-80
2023/05/19 11:42:27;;;;;;;2.50;2.30;;;18.70;99.90;;;;;;5012052;28;20439;-79
2023/05/19 11:44:55;;;;;;;2.23;2.13;;;19.00;99.90;;;;;;5012410;28;21164;-79
2023/05/19 11:47:21;;;;;;;2.70;2.50;;;18.90;99.90;;;;;;5012628;28;20175;-79
2023/05/19 11:49:47;;;;;;;3.00;2.80;;;18.90;99.80;;;;;;5013193;28;20181;-79
2023/05/19 11:52:14;;;;;;;3.47;3.03;;;18.80;99.90;;;;;;5020612;28;20725;-79
2023/05/19 11:54:40;;;;;;;4.07;3.17;;;18.90;99.90;;;;;;5025659;28;20231;-79
2023/05/19 11:57:09;;;;;;;3.50;2.67;;;18.60;99.90;;;;;;5015928;28;20252;-78
2023/05/19 11:59:38;;;;;;;3.43;2.47;;;18.60;99.90;;;;;;5017591;28;20173;-78
2023/05/19 12:02:16;;;;;;;3.17;2.90;;;18.80;99.90;;;;;;5020820;28;20211;-78
2023/05/19 12:04:42;;;;;;;3.10;2.90;;;19.40;99.90;;;;;;5015997;28;20165;-79
2023/05/19 12:07:10;;;;;;;3.20;3.00;;;19.80;99.90;;;;;;5015595;28;20176;-79
2023/05/19 12:09:36;;;;;;;3.23;2.93;;;20.00;99.90;;;;;;5015049;28;20641;-79
2023/05/19 12:12:03;;;;;;;3.57;3.27;;;20.10;99.50;;;;;;5021977;28;20170;-78
2023/05/19 12:14:30;;;;;;;2.93;2.73;;;19.90;98.90;;;;;;5017032;28;20169;-79
2023/05/19 12:16:56;;;;;;;3.20;3.00;;;19.80;98.80;;;;;;5014424;28;20180;-79
2023/05/19 12:19:25;;;;;;;3.03;2.80;;;19.80;99.00;;;;;;5015354;28;20177;-79
2023/05/19 12:21:52;;;;;;;4.00;2.70;;;19.70;98.80;;;;;;5015429;28;20232;-79
2023/05/19 12:24:21;;;;;;;3.43;3.17;;;19.60;99.70;;;;;;5015846;28;20232;-78
2023/05/19 12:26:49;;;;;;;6.03;2.90;;;19.60;99.60;;;;;;5026363;28;20177;-79
2023/05/19 12:29:14;;;;;;;3.30;3.03;;;19.70;99.50;;;;;;5028691;28;20203;-80
2023/05/19 12:31:40;;;;;;;3.60;3.33;;;19.80;99.00;;;;;;5020572;28;20177;-78
2023/05/19 12:34:06;;;;;;;3.30;3.00;;;19.90;99.40;;;;;;5046933;28;20177;-78
2023/05/19 12:36:32;;;;;;;3.07;2.83;;;20.10;99.10;;;;;;5046798;28;20183;-79
2023/05/19 12:38:58;;;;;;;3.07;2.87;;;20.20;98.90;;;;;;5046564;28;20181;-78
2023/05/19 12:41:26;;;;;;;3.57;3.27;;;20.30;98.90;;;;;;5014397;28;20217;-79
2023/05/19 12:43:53;;;;;;;3.17;2.70;;;20.30;99.40;;;;;;5014400;28;20252;-79
2023/05/19 12:46:19;;;;;;;3.37;3.07;;;19.90;99.20;;;;;;5014389;28;20192;-78
2023/05/19 12:48:46;;;;;;;3.30;3.00;;;19.50;99.60;;;;;;5013308;28;20181;-77